createdAt,value
2019-06-27T00:02:34.422Z,26
2019-06-27T00:05:34.554Z,26
2019-06-27T00:08:34.587Z,26
2019-06-27T00:11:34.663Z,26
2019-06-27T00:14:34.727Z,26
2019-06-27T00:17:34.855Z,26
2019-06-27T00:20:34.949Z,26
2019-06-27T00:23:34.997Z,26
2019-06-27T00:26:35.073Z,26
2019-06-27T00:29:35.132Z,26
2019-06-27T00:35:35.321Z,26
2019-06-27T00:38:35.406Z,26
2019-06-27T00:41:35.472Z,26
2019-06-27T00:44:35.558Z,26
2019-06-27T00:47:35.609Z,26
2019-06-27T00:50:35.863Z,26
2019-06-27T00:53:35.798Z,26
2019-06-27T00:56:35.883Z,26
2019-06-27T00:59:35.945Z,26
2019-06-27T01:02:36.041Z,26
2019-06-27T01:05:36.112Z,25
2019-06-27T01:08:36.198Z,25
2019-06-27T01:11:36.285Z,25
2019-06-27T01:14:36.339Z,25
2019-06-27T01:17:37.024Z,25
2019-06-27T01:20:36.520Z,25
2019-06-27T01:23:36.575Z,25
2019-06-27T01:26:36.782Z,25
2019-06-27T01:29:36.698Z,25
2019-06-27T01:32:36.767Z,25
2019-06-27T01:35:36.870Z,25
2019-06-27T01:38:36.937Z,25
2019-06-27T01:41:37.017Z,25
2019-06-27T01:47:37.226Z,25
2019-06-27T01:50:37.336Z,25
2019-06-27T01:53:37.322Z,25
2019-06-27T01:56:37.443Z,25
2019-06-27T01:59:37.459Z,25
2019-06-27T02:02:37.557Z,25
2019-06-27T02:05:37.638Z,25
2019-06-27T02:08:37.730Z,25
2019-06-27T02:11:37.810Z,25
2019-06-27T02:14:37.898Z,25
2019-06-27T02:17:37.940Z,25
2019-06-27T02:20:38.074Z,25
2019-06-27T02:23:38.112Z,25
2019-06-27T02:26:38.304Z,24
2019-06-27T02:29:38.250Z,24
2019-06-27T02:32:38.370Z,24
2019-06-27T02:35:38.724Z,24
2019-06-27T02:38:38.630Z,24
2019-06-27T02:41:38.585Z,24
2019-06-27T02:44:38.667Z,24
2019-06-27T02:47:38.846Z,24
2019-06-27T02:50:38.853Z,24
2019-06-27T02:53:39.014Z,24
2019-06-27T02:56:39.171Z,24
2019-06-27T02:59:39.064Z,24
2019-06-27T03:02:39.244Z,24
2019-06-27T03:05:39.228Z,24
2019-06-27T03:08:39.284Z,24
2019-06-27T03:11:39.369Z,24
2019-06-27T03:14:39.466Z,24
2019-06-27T03:17:39.548Z,24
2019-06-27T03:20:39.631Z,24
2019-06-27T03:23:39.816Z,24
2019-06-27T03:26:39.751Z,24
2019-06-27T03:29:39.939Z,24
2019-06-27T03:32:39.937Z,24
2019-06-27T03:35:40.029Z,24
2019-06-27T03:38:40.169Z,24
2019-06-27T03:41:40.152Z,24
2019-06-27T04:05:40.834Z,24
2019-06-27T04:08:40.868Z,24
2019-06-27T04:11:41.044Z,24
2019-06-27T04:14:41.011Z,24
2019-06-27T04:17:41.118Z,24
2019-06-27T04:20:41.177Z,24
2019-06-27T04:44:41.945Z,25
2019-06-27T04:47:42.002Z,25
2019-06-27T04:50:41.987Z,25
2019-06-27T04:53:42.496Z,25
2019-06-27T04:56:42.137Z,25
2019-06-27T04:59:53.295Z,25
2019-06-27T05:02:42.315Z,25
2019-06-27T05:05:42.417Z,25
2019-06-27T05:08:42.496Z,25
2019-06-27T05:11:42.574Z,26
2019-06-27T05:14:42.671Z,26
2019-06-27T05:17:42.740Z,26
2019-06-27T05:20:42.809Z,26
2019-06-27T05:23:42.899Z,26
2019-06-27T05:26:42.962Z,26
2019-06-27T05:32:43.238Z,26
2019-06-27T05:35:43.261Z,26
2019-06-27T05:38:43.306Z,27
2019-06-27T05:41:43.391Z,27
2019-06-27T05:44:43.600Z,27
2019-06-27T05:47:43.568Z,27
2019-06-27T05:50:43.614Z,27
2019-06-27T05:53:45.757Z,27
2019-06-27T05:56:43.874Z,27
2019-06-27T05:59:43.872Z,27
2019-06-27T06:02:43.981Z,27
2019-06-27T06:05:44.039Z,28
2019-06-27T06:08:44.116Z,28
2019-06-27T06:11:44.210Z,28
2019-06-27T06:14:44.277Z,28
2019-06-27T06:17:44.420Z,29
2019-06-27T06:20:44.476Z,29
2019-06-27T06:23:44.553Z,30
2019-06-27T06:26:44.628Z,31
2019-06-27T06:29:44.829Z,31
2019-06-27T06:32:44.967Z,32
2019-06-27T06:35:45.128Z,33
2019-06-27T06:38:45.021Z,34
2019-06-27T06:41:45.096Z,33
2019-06-27T06:44:45.186Z,33
2019-06-27T06:47:45.441Z,33
2019-06-27T06:50:45.376Z,34
2019-06-27T06:53:45.450Z,35
2019-06-27T06:56:45.540Z,35
2019-06-27T06:59:45.704Z,35
2019-06-27T07:02:45.754Z,36
2019-06-27T07:05:46.026Z,37
2019-06-27T07:08:45.930Z,37
2019-06-27T07:11:46.035Z,36
2019-06-27T07:14:46.234Z,37
2019-06-27T07:17:46.261Z,38
2019-06-27T07:20:46.329Z,38
2019-06-27T07:23:46.421Z,38
2019-06-27T07:26:46.514Z,39
2019-06-27T07:29:46.609Z,40
2019-06-27T07:32:46.751Z,40
2019-06-27T07:35:46.813Z,41
2019-06-27T07:38:47.447Z,40
2019-06-27T07:41:47.031Z,40
2019-06-27T07:44:47.113Z,39
2019-06-27T07:47:47.520Z,39
2019-06-27T07:50:47.289Z,39
2019-06-27T07:53:47.397Z,39
2019-06-27T07:56:47.497Z,39
2019-06-27T07:59:47.613Z,39
2019-06-27T08:02:47.839Z,39
2019-06-27T08:05:47.778Z,39
2019-06-27T08:08:47.892Z,39
2019-06-27T08:11:48.082Z,40
2019-06-27T08:14:48.520Z,41
2019-06-27T08:17:48.201Z,40
2019-06-27T08:23:48.429Z,40
2019-06-27T08:26:48.474Z,40
2019-06-27T08:29:48.603Z,40
2019-06-27T08:32:48.694Z,41
2019-06-27T08:35:48.772Z,42
2019-06-27T08:38:48.914Z,43
2019-06-27T08:41:48.993Z,43
2019-06-27T08:44:49.088Z,45
2019-06-27T08:47:49.236Z,46
2019-06-27T08:50:49.320Z,45
2019-06-27T08:53:49.415Z,44
2019-06-27T08:56:49.634Z,44
2019-06-27T08:59:49.627Z,45
2019-06-27T09:02:49.756Z,46
2019-06-27T09:05:49.848Z,46
2019-06-27T09:08:49.951Z,47
2019-06-27T09:11:50.066Z,46
2019-06-27T09:14:50.275Z,46
2019-06-27T09:17:50.300Z,46
2019-06-27T09:20:50.383Z,47
2019-06-27T09:23:50.667Z,48
2019-06-27T09:26:50.731Z,48
2019-06-27T09:29:50.717Z,50
2019-06-27T09:32:50.868Z,50
2019-06-27T09:35:51.078Z,50
2019-06-27T09:38:51.075Z,50
2019-06-27T09:41:51.313Z,50
2019-06-27T09:44:51.316Z,50
2019-06-27T09:47:51.443Z,51
2019-06-27T09:50:51.520Z,52
2019-06-27T09:53:51.651Z,52
2019-06-27T09:56:51.775Z,53
2019-06-27T09:59:51.890Z,54
2019-06-27T10:02:52.072Z,53
2019-06-27T10:05:52.140Z,52
2019-06-27T10:08:52.256Z,53
2019-06-27T10:11:53.353Z,53
2019-06-27T10:17:52.618Z,53
2019-06-27T10:20:52.736Z,53
2019-06-27T10:23:52.839Z,54
2019-06-27T10:26:52.977Z,55
2019-06-27T10:29:53.078Z,54
2019-06-27T10:32:59.305Z,54
2019-06-27T10:35:53.443Z,53
2019-06-27T10:38:53.450Z,53
2019-06-27T10:41:53.547Z,53
2019-06-27T10:44:53.681Z,52
2019-06-27T10:47:53.831Z,52
2019-06-27T10:50:54.859Z,52
2019-06-27T10:53:54.021Z,53
2019-06-27T10:56:54.131Z,52
2019-06-27T10:59:54.249Z,52
2019-06-27T11:02:54.382Z,52
2019-06-27T11:05:54.594Z,52
2019-06-27T11:08:54.719Z,54
2019-06-27T11:11:54.742Z,54
2019-06-27T11:14:59.300Z,53
2019-06-27T11:17:54.986Z,52
2019-06-27T11:20:55.059Z,51
2019-06-27T11:23:55.166Z,51
2019-06-27T11:26:55.401Z,52
2019-06-27T11:29:55.498Z,53
2019-06-27T11:32:55.537Z,51
2019-06-27T11:35:55.726Z,52
2019-06-27T11:38:55.737Z,53
2019-06-27T11:41:56.222Z,52
2019-06-27T11:44:56.090Z,51
2019-06-27T11:47:56.227Z,51
2019-06-27T11:50:56.214Z,51
2019-06-27T11:53:56.416Z,53
2019-06-27T11:56:56.437Z,52
2019-06-27T11:59:56.679Z,51
2019-06-27T12:02:56.665Z,51
2019-06-27T12:05:56.753Z,51
2019-06-27T12:08:56.887Z,52
2019-06-27T12:11:57.022Z,53
2019-06-27T12:14:57.112Z,55
2019-06-27T12:17:57.253Z,54
2019-06-27T12:20:57.782Z,53
2019-06-27T12:23:57.462Z,52
2019-06-27T12:26:57.699Z,51
2019-06-27T12:29:57.681Z,50
2019-06-27T12:32:57.812Z,50
2019-06-27T12:35:57.914Z,49
2019-06-27T12:38:58.041Z,49
2019-06-27T12:41:58.238Z,49
2019-06-27T12:44:58.229Z,50
2019-06-27T12:48:06.435Z,51
2019-06-27T12:50:58.456Z,52
2019-06-27T12:53:58.579Z,50
2019-06-27T12:56:58.691Z,50
2019-06-27T12:59:58.802Z,51
2019-06-27T13:02:59.082Z,51
2019-06-27T13:05:59.108Z,50
2019-06-27T13:08:59.462Z,51
2019-06-27T13:11:59.260Z,52
2019-06-27T13:14:59.362Z,53
2019-06-27T13:17:59.841Z,52
2019-06-27T13:20:59.568Z,50
2019-06-27T13:23:59.677Z,50
2019-06-27T13:26:59.812Z,51
2019-06-27T13:29:59.915Z,51
2019-06-27T13:33:00.026Z,51
2019-06-27T13:36:00.132Z,51
2019-06-27T13:39:00.591Z,51
2019-06-27T13:42:00.347Z,51
2019-06-27T13:45:00.595Z,51
2019-06-27T13:48:00.699Z,50
2019-06-27T13:51:00.688Z,51
2019-06-27T13:54:00.783Z,51
2019-06-27T13:57:00.890Z,51
2019-06-27T14:00:01.569Z,51
2019-06-27T14:03:01.117Z,51
2019-06-27T14:06:01.676Z,49
2019-06-27T14:09:01.452Z,49
2019-06-27T14:12:01.436Z,49
2019-06-27T14:15:01.571Z,49
2019-06-27T14:18:01.697Z,49
2019-06-27T14:21:01.773Z,50
2019-06-27T14:24:01.883Z,49
2019-06-27T14:27:04.556Z,49
2019-06-27T14:30:02.120Z,49
2019-06-27T14:33:02.242Z,48
2019-06-27T14:36:02.420Z,47
2019-06-27T14:39:02.396Z,46
2019-06-27T14:42:02.568Z,47
2019-06-27T14:45:02.622Z,47
2019-06-27T14:48:02.741Z,46
2019-06-27T14:51:02.825Z,45
2019-06-27T14:54:03.065Z,45
2019-06-27T14:57:03.132Z,46
2019-06-27T15:00:03.111Z,46
2019-06-27T15:03:03.256Z,44
2019-06-27T15:06:03.314Z,42
2019-06-27T15:09:03.443Z,40
2019-06-27T15:12:03.491Z,39
2019-06-27T15:15:03.577Z,39
2019-06-27T15:18:03.722Z,37
2019-06-27T15:21:03.861Z,37
2019-06-27T15:24:03.855Z,36
2019-06-27T15:27:03.929Z,35
2019-06-27T15:30:04.474Z,35
2019-06-27T15:33:04.164Z,35
2019-06-27T15:36:04.207Z,34
2019-06-27T15:39:04.290Z,34
2019-06-27T15:42:04.371Z,34
2019-06-27T15:45:04.473Z,34
2019-06-27T15:48:04.576Z,34
2019-06-27T15:51:04.644Z,34
2019-06-27T15:54:04.847Z,34
2019-06-27T15:57:04.809Z,34
2019-06-27T16:00:04.922Z,34
2019-06-27T16:03:05.047Z,34
2019-06-27T16:06:10.257Z,34
2019-06-27T16:09:05.187Z,33
2019-06-27T16:12:05.298Z,33
2019-06-27T16:18:05.477Z,33
2019-06-27T16:21:05.528Z,33
2019-06-27T16:24:05.611Z,33
2019-06-27T16:27:05.693Z,33
2019-06-27T16:30:06.194Z,33
2019-06-27T16:33:06.025Z,33
2019-06-27T16:36:05.956Z,32
2019-06-27T16:39:06.048Z,32
2019-06-27T16:42:06.254Z,32
2019-06-27T16:45:06.220Z,32
2019-06-27T16:48:06.386Z,32
2019-06-27T16:51:06.339Z,32
2019-06-27T16:54:06.876Z,32
2019-06-27T16:57:06.513Z,32
2019-06-27T17:00:06.817Z,32
2019-06-27T17:03:06.797Z,32
2019-06-27T17:06:06.782Z,32
2019-06-27T17:09:06.856Z,32
2019-06-27T17:48:08.013Z,31
2019-06-27T17:51:08.372Z,31
2019-06-27T17:54:08.248Z,31
2019-06-27T17:57:08.218Z,31
2019-06-27T18:00:08.315Z,31
2019-06-27T18:03:08.432Z,30
2019-06-27T18:06:08.490Z,30
2019-06-27T18:09:08.574Z,30
2019-06-27T18:12:08.751Z,30
2019-06-27T18:15:08.828Z,30
2019-06-27T18:18:08.826Z,30
2019-06-27T18:21:08.915Z,30
2019-06-27T18:24:09.091Z,30
2019-06-27T18:27:09.061Z,30
2019-06-27T18:30:09.245Z,29
2019-06-27T18:36:09.725Z,29
2019-06-27T18:48:09.631Z,29
2019-06-27T19:06:10.161Z,28
2019-06-27T19:09:10.204Z,28
2019-06-27T19:12:10.413Z,28
2019-06-27T19:15:10.361Z,28
2019-06-27T19:18:10.468Z,27
2019-06-27T19:21:10.542Z,27
2019-06-27T19:24:10.729Z,27
2019-06-27T19:27:10.696Z,27
2019-06-27T19:30:10.878Z,27
2019-06-27T19:33:10.834Z,27
2019-06-27T19:36:10.934Z,27
2019-06-27T19:39:11.000Z,27
2019-06-27T19:42:11.065Z,26
2019-06-27T19:45:11.167Z,26
2019-06-27T19:48:11.237Z,26
2019-06-27T19:51:11.322Z,26
2019-06-27T19:54:11.394Z,26
2019-06-27T19:57:11.477Z,26
2019-06-27T20:00:11.657Z,26
2019-06-27T20:03:11.647Z,26
2019-06-27T20:06:11.732Z,26
2019-06-27T20:09:11.795Z,26
2019-06-27T20:12:11.899Z,25
2019-06-27T20:15:11.955Z,25
2019-06-27T20:18:12.113Z,25
2019-06-27T20:21:12.567Z,25
2019-06-27T20:24:12.300Z,25
2019-06-27T20:27:12.366Z,25
2019-06-27T20:30:12.322Z,25
2019-06-27T20:33:12.393Z,25
2019-06-27T20:36:12.483Z,25
2019-06-27T20:39:12.546Z,24
2019-06-27T20:42:12.626Z,24
2019-06-27T20:45:12.709Z,24
2019-06-27T20:48:12.789Z,24
2019-06-27T20:51:12.900Z,24
2019-06-27T20:54:13.060Z,24
2019-06-27T21:00:13.182Z,24
2019-06-27T21:03:13.231Z,24
2019-06-27T21:06:13.252Z,23
2019-06-27T21:09:13.309Z,23
2019-06-27T21:12:13.376Z,23
2019-06-27T21:15:13.484Z,23
2019-06-27T21:18:13.513Z,23
2019-06-27T21:21:13.651Z,23
2019-06-27T21:24:13.742Z,23
2019-06-27T21:27:14.234Z,22
2019-06-27T21:30:13.932Z,22
2019-06-27T21:33:13.948Z,22
2019-06-27T21:36:14.019Z,22
2019-06-27T21:39:14.100Z,22
2019-06-27T21:42:14.178Z,22
2019-06-27T21:45:14.262Z,22
2019-06-27T21:48:14.421Z,22
2019-06-27T21:51:14.398Z,22
2019-06-27T21:54:14.462Z,22
2019-06-27T21:57:14.536Z,22
2019-06-27T22:00:14.638Z,21
2019-06-27T22:03:14.686Z,21
2019-06-27T22:06:14.758Z,21
2019-06-27T22:09:24.698Z,21
2019-06-27T22:12:14.883Z,21
2019-06-27T22:15:15.031Z,21
2019-06-27T22:18:15.044Z,21
2019-06-27T22:21:15.148Z,21
2019-06-27T22:24:15.192Z,21
2019-06-27T22:27:15.251Z,21
2019-06-27T22:30:15.661Z,21
2019-06-27T22:33:15.394Z,21
2019-06-27T22:36:17.931Z,21
2019-06-27T22:39:15.538Z,21
2019-06-27T22:42:15.605Z,21
2019-06-27T22:45:15.666Z,21
2019-06-27T22:48:15.716Z,21
2019-06-27T22:51:15.800Z,20
2019-06-27T22:54:15.901Z,20
2019-06-27T22:57:15.949Z,20
2019-06-27T23:00:16.032Z,20
2019-06-27T23:03:16.081Z,20
2019-06-27T23:06:16.167Z,20
2019-06-27T23:09:16.242Z,20
2019-06-27T23:12:16.422Z,20
2019-06-27T23:15:16.375Z,20
2019-06-27T23:18:16.439Z,20
2019-06-27T23:21:16.514Z,20
2019-06-27T23:24:16.603Z,20
2019-06-27T23:27:16.646Z,20
2019-06-27T23:30:16.697Z,20
2019-06-27T23:33:16.767Z,20
2019-06-27T23:36:16.848Z,20
2019-06-27T23:39:16.967Z,20
2019-06-27T23:42:17.009Z,20
2019-06-27T23:45:17.159Z,20
2019-06-27T23:48:17.131Z,20
2019-06-27T23:51:17.302Z,19
2019-06-27T23:54:17.320Z,19
2019-06-27T23:57:17.354Z,19
